sensor_id;sensor_type;location;lat;lon;timestamp;P1;durP1;ratioP1;P2;durP2;ratioP2
22476;SDS011;65006;51.698;-0.292;2022-12-19T00:00:22;8.65;;;2.70;;
22476;SDS011;65006;51.698;-0.292;2022-12-19T00:02:49;8.20;;;2.88;;
22476;SDS011;65006;51.698;-0.292;2022-12-19T00:05:15;12.43;;;3.13;;
22476;SDS011;65006;51.698;-0.292;2022-12-19T00:07:41;11.13;;;3.22;;
22476;SDS011;65006;51.698;-0.292;2022-12-19T00:10:07;6.68;;;3.10;;
22476;SDS011;65006;51.698;-0.292;2022-12-19T00:12:33;7.82;;;3.08;;
22476;SDS011;65006;51.698;-0.292;2022-12-19T00:14:59;6.10;;;2.80;;
22476;SDS011;65006;51.698;-0.292;2022-12-19T00:17:25;10.32;;;2.97;;
22476;SDS011;65006;51.698;-0.292;2022-12-19T00:19:51;9.75;;;3.47;;
22476;SDS011;65006;51.698;-0.292;2022-12-19T00:22:17;8.88;;;2.85;;
22476;SDS011;65006;51.698;-0.292;2022-12-19T00:24:43;8.55;;;2.83;;
22476;SDS011;65006;51.698;-0.292;2022-12-19T00:27:09;5.88;;;2.30;;
22476;SDS011;65006;51.698;-0.292;2022-12-19T00:29:35;5.35;;;2.63;;
22476;SDS011;65006;51.698;-0.292;2022-12-19T00:32:01;9.02;;;2.40;;
22476;SDS011;65006;51.698;-0.292;2022-12-19T00:34:27;4.85;;;2.30;;
22476;SDS011;65006;51.698;-0.292;2022-12-19T00:36:53;8.27;;;2.85;;
22476;SDS011;65006;51.698;-0.292;2022-12-19T00:39:20;9.32;;;2.22;;
22476;SDS011;65006;51.698;-0.292;2022-12-19T00:41:46;6.78;;;1.77;;
22476;SDS011;65006;51.698;-0.292;2022-12-19T00:44:15;6.15;;;1.90;;
22476;SDS011;65006;51.698;-0.292;2022-12-19T00:46:41;3.88;;;2.00;;
22476;SDS011;65006;51.698;-0.292;2022-12-19T00:49:07;3.97;;;2.00;;
22476;SDS011;65006;51.698;-0.292;2022-12-19T00:51:34;6.45;;;2.00;;
22476;SDS011;65006;51.698;-0.292;2022-12-19T00:54:01;3.40;;;1.50;;
22476;SDS011;65006;51.698;-0.292;2022-12-19T00:56:29;7.05;;;1.58;;
22476;SDS011;65006;51.698;-0.292;2022-12-19T00:58:55;4.60;;;1.60;;
22476;SDS011;65006;51.698;-0.292;2022-12-19T01:01:29;7.20;;;1.50;;
22476;SDS011;65006;51.698;-0.292;2022-12-19T01:03:57;3.17;;;1.50;;
22476;SDS011;65006;51.698;-0.292;2022-12-19T01:06:26;3.75;;;1.50;;
22476;SDS011;65006;51.698;-0.292;2022-12-19T01:08:53;4.82;;;1.00;;
22476;SDS011;65006;51.698;-0.292;2022-12-19T01:11:19;2.95;;;1.00;;
22476;SDS011;65006;51.698;-0.292;2022-12-19T01:14:04;2.97;;;1.20;;
22476;SDS011;65006;51.698;-0.292;2022-12-19T01:16:30;2.58;;;1.15;;
22476;SDS011;65006;51.698;-0.292;2022-12-19T01:18:56;3.83;;;1.05;;
22476;SDS011;65006;51.698;-0.292;2022-12-19T01:21:23;2.42;;;1.08;;
22476;SDS011;65006;51.698;-0.292;2022-12-19T01:23:49;5.53;;;1.35;;
22476;SDS011;65006;51.698;-0.292;2022-12-19T01:26:15;2.20;;;1.10;;
22476;SDS011;65006;51.698;-0.292;2022-12-19T01:28:41;4.18;;;1.05;;
22476;SDS011;65006;51.698;-0.292;2022-12-19T01:31:07;3.72;;;1.20;;
22476;SDS011;65006;51.698;-0.292;2022-12-19T01:33:33;2.88;;;1.00;;
22476;SDS011;65006;51.698;-0.292;2022-12-19T01:35:59;4.22;;;1.10;;
22476;SDS011;65006;51.698;-0.292;2022-12-19T01:38:31;5.63;;;1.13;;
22476;SDS011;65006;51.698;-0.292;2022-12-19T01:40:58;6.57;;;1.20;;
22476;SDS011;65006;51.698;-0.292;2022-12-19T01:43:24;4.47;;;1.00;;
22476;SDS011;65006;51.698;-0.292;2022-12-19T01:46:01;2.47;;;1.23;;
22476;SDS011;65006;51.698;-0.292;2022-12-19T01:48:29;2.50;;;1.27;;
22476;SDS011;65006;51.698;-0.292;2022-12-19T01:51:04;7.80;;;1.15;;
22476;SDS011;65006;51.698;-0.292;2022-12-19T01:53:34;3.97;;;1.65;;
22476;SDS011;65006;51.698;-0.292;2022-12-19T01:56:00;7.80;;;1.52;;
22476;SDS011;65006;51.698;-0.292;2022-12-19T02:00:53;10.52;;;1.45;;
22476;SDS011;65006;51.698;-0.292;2022-12-19T02:03:23;1.75;;;1.08;;
22476;SDS011;65006;51.698;-0.292;2022-12-19T02:05:51;4.38;;;1.17;;
22476;SDS011;65006;51.698;-0.292;2022-12-19T02:08:17;5.38;;;1.15;;
22476;SDS011;65006;51.698;-0.292;2022-12-19T02:10:43;7.78;;;1.30;;
22476;SDS011;65006;51.698;-0.292;2022-12-19T02:13:09;5.18;;;1.38;;
22476;SDS011;65006;51.698;-0.292;2022-12-19T02:15:40;5.57;;;1.70;;
22476;SDS011;65006;51.698;-0.292;2022-12-19T02:18:16;6.25;;;1.67;;
22476;SDS011;65006;51.698;-0.292;2022-12-19T02:33:18;6.15;;;1.30;;
22476;SDS011;65006;51.698;-0.292;2022-12-19T02:36:46;11.52;;;1.80;;
22476;SDS011;65006;51.698;-0.292;2022-12-19T02:41:12;8.95;;;1.88;;
22476;SDS011;65006;51.698;-0.292;2022-12-19T02:43:40;11.20;;;1.98;;
22476;SDS011;65006;51.698;-0.292;2022-12-19T02:46:08;8.52;;;1.83;;
22476;SDS011;65006;51.698;-0.292;2022-12-19T02:48:36;7.50;;;1.67;;
22476;SDS011;65006;51.698;-0.292;2022-12-19T02:51:02;5.95;;;1.58;;
22476;SDS011;65006;51.698;-0.292;2022-12-19T02:53:28;5.78;;;1.98;;
22476;SDS011;65006;51.698;-0.292;2022-12-19T03:01:00;11.95;;;2.10;;
22476;SDS011;65006;51.698;-0.292;2022-12-19T03:06:02;4.75;;;1.42;;
22476;SDS011;65006;51.698;-0.292;2022-12-19T03:08:43;12.57;;;2.08;;
22476;SDS011;65006;51.698;-0.292;2022-12-19T03:11:12;11.00;;;2.10;;
22476;SDS011;65006;51.698;-0.292;2022-12-19T03:13:58;6.80;;;1.75;;
22476;SDS011;65006;51.698;-0.292;2022-12-19T03:16:25;9.52;;;2.38;;
22476;SDS011;65006;51.698;-0.292;2022-12-19T03:18:55;10.57;;;2.08;;
22476;SDS011;65006;51.698;-0.292;2022-12-19T03:23:51;12.82;;;2.50;;
22476;SDS011;65006;51.698;-0.292;2022-12-19T03:26:19;7.47;;;1.50;;
22476;SDS011;65006;51.698;-0.292;2022-12-19T03:28:47;7.72;;;2.13;;
22476;SDS011;65006;51.698;-0.292;2022-12-19T03:31:15;14.18;;;2.47;;
22476;SDS011;65006;51.698;-0.292;2022-12-19T03:33:42;8.43;;;1.95;;
22476;SDS011;65006;51.698;-0.292;2022-12-19T03:36:10;6.80;;;1.70;;
22476;SDS011;65006;51.698;-0.292;2022-12-19T03:38:37;11.30;;;2.20;;
22476;SDS011;65006;51.698;-0.292;2022-12-19T03:41:04;10.63;;;1.88;;
22476;SDS011;65006;51.698;-0.292;2022-12-19T03:43:32;7.60;;;2.20;;
22476;SDS011;65006;51.698;-0.292;2022-12-19T03:46:07;16.23;;;2.55;;
22476;SDS011;65006;51.698;-0.292;2022-12-19T03:48:44;14.13;;;3.33;;
22476;SDS011;65006;51.698;-0.292;2022-12-19T03:51:15;16.60;;;2.40;;
22476;SDS011;65006;51.698;-0.292;2022-12-19T03:53:46;17.25;;;2.58;;
22476;SDS011;65006;51.698;-0.292;2022-12-19T03:56:25;11.70;;;3.08;;
22476;SDS011;65006;51.698;-0.292;2022-12-19T03:59:05;8.60;;;2.63;;
22476;SDS011;65006;51.698;-0.292;2022-12-19T04:01:32;12.57;;;2.47;;
22476;SDS011;65006;51.698;-0.292;2022-12-19T04:03:59;14.10;;;2.60;;
22476;SDS011;65006;51.698;-0.292;2022-12-19T04:06:27;14.75;;;2.97;;
22476;SDS011;65006;51.698;-0.292;2022-12-19T04:08:55;14.23;;;2.88;;
22476;SDS011;65006;51.698;-0.292;2022-12-19T04:11:26;17.13;;;2.90;;
22476;SDS011;65006;51.698;-0.292;2022-12-19T04:13:55;11.60;;;2.42;;
22476;SDS011;65006;51.698;-0.292;2022-12-19T04:18:50;11.65;;;2.17;;
22476;SDS011;65006;51.698;-0.292;2022-12-19T04:21:18;11.90;;;2.30;;
22476;SDS011;65006;51.698;-0.292;2022-12-19T04:23:54;18.33;;;3.30;;
22476;SDS011;65006;51.698;-0.292;2022-12-19T04:26:21;11.13;;;3.13;;
22476;SDS011;65006;51.698;-0.292;2022-12-19T04:28:54;10.70;;;2.83;;
22476;SDS011;65006;51.698;-0.292;2022-12-19T04:31:22;18.23;;;3.08;;
22476;SDS011;65006;51.698;-0.292;2022-12-19T04:33:48;19.30;;;3.30;;
22476;SDS011;65006;51.698;-0.292;2022-12-19T04:36:14;15.30;;;2.72;;
22476;SDS011;65006;51.698;-0.292;2022-12-19T04:38:40;12.20;;;2.90;;
22476;SDS011;65006;51.698;-0.292;2022-12-19T04:41:06;22.33;;;3.78;;
22476;SDS011;65006;51.698;-0.292;2022-12-19T04:43:33;13.30;;;2.75;;
22476;SDS011;65006;51.698;-0.292;2022-12-19T04:45:59;10.43;;;2.50;;
22476;SDS011;65006;51.698;-0.292;2022-12-19T04:48:25;10.38;;;2.55;;
22476;SDS011;65006;51.698;-0.292;2022-12-19T04:50:51;5.10;;;2.10;;
22476;SDS011;65006;51.698;-0.292;2022-12-19T04:53:17;9.77;;;2.38;;
22476;SDS011;65006;51.698;-0.292;2022-12-19T04:55:43;9.65;;;2.55;;
22476;SDS011;65006;51.698;-0.292;2022-12-19T04:58:09;15.35;;;2.55;;
22476;SDS011;65006;51.698;-0.292;2022-12-19T05:00:35;41.35;;;2.85;;
22476;SDS011;65006;51.698;-0.292;2022-12-19T05:03:01;14.93;;;2.08;;
22476;SDS011;65006;51.698;-0.292;2022-12-19T05:05:27;11.38;;;2.47;;
22476;SDS011;65006;51.698;-0.292;2022-12-19T05:07:56;11.50;;;1.83;;
22476;SDS011;65006;51.698;-0.292;2022-12-19T05:10:22;9.90;;;2.97;;
22476;SDS011;65006;51.698;-0.292;2022-12-19T05:12:48;20.17;;;1.92;;
22476;SDS011;65006;51.698;-0.292;2022-12-19T05:15:14;11.40;;;1.85;;
22476;SDS011;65006;51.698;-0.292;2022-12-19T05:17:41;17.48;;;2.53;;
22476;SDS011;65006;51.698;-0.292;2022-12-19T05:20:07;16.05;;;2.20;;
22476;SDS011;65006;51.698;-0.292;2022-12-19T05:22:33;12.02;;;2.08;;
22476;SDS011;65006;51.698;-0.292;2022-12-19T05:24:59;5.97;;;1.65;;
22476;SDS011;65006;51.698;-0.292;2022-12-19T05:27:25;6.18;;;1.67;;
22476;SDS011;65006;51.698;-0.292;2022-12-19T05:29:51;15.40;;;2.00;;
22476;SDS011;65006;51.698;-0.292;2022-12-19T05:32:17;9.25;;;1.95;;
22476;SDS011;65006;51.698;-0.292;2022-12-19T05:34:43;9.25;;;2.00;;
22476;SDS011;65006;51.698;-0.292;2022-12-19T05:37:09;9.45;;;1.75;;
22476;SDS011;65006;51.698;-0.292;2022-12-19T05:39:35;9.20;;;2.08;;
22476;SDS011;65006;51.698;-0.292;2022-12-19T05:42:01;7.45;;;1.95;;
22476;SDS011;65006;51.698;-0.292;2022-12-19T05:44:27;10.07;;;1.85;;
22476;SDS011;65006;51.698;-0.292;2022-12-19T05:46:53;10.32;;;2.00;;
22476;SDS011;65006;51.698;-0.292;2022-12-19T05:49:19;4.72;;;1.50;;
22476;SDS011;65006;51.698;-0.292;2022-12-19T05:51:45;7.43;;;1.85;;
22476;SDS011;65006;51.698;-0.292;2022-12-19T05:54:12;8.18;;;2.17;;
22476;SDS011;65006;51.698;-0.292;2022-12-19T05:56:38;7.97;;;1.50;;
22476;SDS011;65006;51.698;-0.292;2022-12-19T05:59:04;7.10;;;1.58;;
22476;SDS011;65006;51.698;-0.292;2022-12-19T06:01:30;10.07;;;2.42;;
22476;SDS011;65006;51.698;-0.292;2022-12-19T06:03:56;6.28;;;1.50;;
22476;SDS011;65006;51.698;-0.292;2022-12-19T06:06:23;5.93;;;1.45;;
22476;SDS011;65006;51.698;-0.292;2022-12-19T06:08:53;8.35;;;2.08;;
22476;SDS011;65006;51.698;-0.292;2022-12-19T06:11:19;9.63;;;1.90;;
22476;SDS011;65006;51.698;-0.292;2022-12-19T06:13:45;14.45;;;2.28;;
22476;SDS011;65006;51.698;-0.292;2022-12-19T06:16:13;7.30;;;1.77;;
22476;SDS011;65006;51.698;-0.292;2022-12-19T06:18:39;9.95;;;1.52;;
22476;SDS011;65006;51.698;-0.292;2022-12-19T06:21:09;9.55;;;1.38;;
22476;SDS011;65006;51.698;-0.292;2022-12-19T06:23:36;4.00;;;1.10;;
22476;SDS011;65006;51.698;-0.292;2022-12-19T06:26:04;6.88;;;1.17;;
22476;SDS011;65006;51.698;-0.292;2022-12-19T06:28:30;8.55;;;1.33;;
22476;SDS011;65006;51.698;-0.292;2022-12-19T06:33:23;7.35;;;1.35;;
22476;SDS011;65006;51.698;-0.292;2022-12-19T06:35:56;6.80;;;1.13;;
22476;SDS011;65006;51.698;-0.292;2022-12-19T06:38:22;2.95;;;1.00;;
22476;SDS011;65006;51.698;-0.292;2022-12-19T06:40:48;8.93;;;1.33;;
22476;SDS011;65006;51.698;-0.292;2022-12-19T06:43:33;7.97;;;1.50;;
22476;SDS011;65006;51.698;-0.292;2022-12-19T06:45:59;4.50;;;1.40;;
22476;SDS011;65006;51.698;-0.292;2022-12-19T06:48:28;5.38;;;1.40;;
22476;SDS011;65006;51.698;-0.292;2022-12-19T06:50:54;4.55;;;1.02;;
22476;SDS011;65006;51.698;-0.292;2022-12-19T06:53:20;4.68;;;1.55;;
22476;SDS011;65006;51.698;-0.292;2022-12-19T06:55:46;8.95;;;1.45;;
22476;SDS011;65006;51.698;-0.292;2022-12-19T07:00:39;7.57;;;2.00;;
22476;SDS011;65006;51.698;-0.292;2022-12-19T07:03:05;5.18;;;1.60;;
22476;SDS011;65006;51.698;-0.292;2022-12-19T07:05:33;8.05;;;2.15;;
22476;SDS011;65006;51.698;-0.292;2022-12-19T07:07:59;6.53;;;1.73;;
22476;SDS011;65006;51.698;-0.292;2022-12-19T07:10:25;6.07;;;2.05;;
22476;SDS011;65006;51.698;-0.292;2022-12-19T07:12:51;5.55;;;1.98;;
22476;SDS011;65006;51.698;-0.292;2022-12-19T07:15:17;6.63;;;1.92;;
22476;SDS011;65006;51.698;-0.292;2022-12-19T07:17:43;11.63;;;2.20;;
22476;SDS011;65006;51.698;-0.292;2022-12-19T07:20:11;10.82;;;2.00;;
22476;SDS011;65006;51.698;-0.292;2022-12-19T07:22:38;10.13;;;2.13;;
22476;SDS011;65006;51.698;-0.292;2022-12-19T07:25:04;10.07;;;2.10;;
22476;SDS011;65006;51.698;-0.292;2022-12-19T07:27:30;13.68;;;1.95;;
22476;SDS011;65006;51.698;-0.292;2022-12-19T07:29:57;10.77;;;2.03;;
22476;SDS011;65006;51.698;-0.292;2022-12-19T07:32:23;6.65;;;2.03;;
22476;SDS011;65006;51.698;-0.292;2022-12-19T07:34:52;15.93;;;2.00;;
22476;SDS011;65006;51.698;-0.292;2022-12-19T07:37:18;4.18;;;1.45;;
22476;SDS011;65006;51.698;-0.292;2022-12-19T07:39:46;6.75;;;1.60;;
22476;SDS011;65006;51.698;-0.292;2022-12-19T07:42:12;14.40;;;1.85;;
22476;SDS011;65006;51.698;-0.292;2022-12-19T07:44:38;5.35;;;1.63;;
22476;SDS011;65006;51.698;-0.292;2022-12-19T07:47:04;7.30;;;1.85;;
22476;SDS011;65006;51.698;-0.292;2022-12-19T07:49:30;7.25;;;1.52;;
22476;SDS011;65006;51.698;-0.292;2022-12-19T07:51:56;5.80;;;1.60;;
22476;SDS011;65006;51.698;-0.292;2022-12-19T07:54:22;4.32;;;1.25;;
22476;SDS011;65006;51.698;-0.292;2022-12-19T07:56:48;5.05;;;1.52;;
22476;SDS011;65006;51.698;-0.292;2022-12-19T07:59:14;7.05;;;1.40;;
22476;SDS011;65006;51.698;-0.292;2022-12-19T08:01:40;5.70;;;1.25;;
22476;SDS011;65006;51.698;-0.292;2022-12-19T08:04:06;7.15;;;1.73;;
22476;SDS011;65006;51.698;-0.292;2022-12-19T08:06:32;7.57;;;1.25;;
22476;SDS011;65006;51.698;-0.292;2022-12-19T08:08:58;4.07;;;1.50;;
22476;SDS011;65006;51.698;-0.292;2022-12-19T08:11:24;11.27;;;1.67;;
22476;SDS011;65006;51.698;-0.292;2022-12-19T08:13:52;3.05;;;1.10;;
22476;SDS011;65006;51.698;-0.292;2022-12-19T08:16:18;4.38;;;1.00;;
22476;SDS011;65006;51.698;-0.292;2022-12-19T08:18:44;4.20;;;1.00;;
22476;SDS011;65006;51.698;-0.292;2022-12-19T08:21:11;6.97;;;1.10;;
22476;SDS011;65006;51.698;-0.292;2022-12-19T08:23:38;4.97;;;1.63;;
22476;SDS011;65006;51.698;-0.292;2022-12-19T08:26:05;4.50;;;1.30;;
22476;SDS011;65006;51.698;-0.292;2022-12-19T08:28:31;7.20;;;1.38;;
22476;SDS011;65006;51.698;-0.292;2022-12-19T08:33:24;5.68;;;1.55;;
22476;SDS011;65006;51.698;-0.292;2022-12-19T08:35:50;3.28;;;1.27;;
22476;SDS011;65006;51.698;-0.292;2022-12-19T08:38:16;4.88;;;1.50;;
22476;SDS011;65006;51.698;-0.292;2022-12-19T08:40:42;4.82;;;1.70;;
22476;SDS011;65006;51.698;-0.292;2022-12-19T08:43:08;4.93;;;1.70;;
22476;SDS011;65006;51.698;-0.292;2022-12-19T08:45:34;3.90;;;1.45;;
22476;SDS011;65006;51.698;-0.292;2022-12-19T08:48:00;6.60;;;1.85;;
22476;SDS011;65006;51.698;-0.292;2022-12-19T08:50:26;5.28;;;1.60;;
22476;SDS011;65006;51.698;-0.292;2022-12-19T08:52:52;7.82;;;1.83;;
22476;SDS011;65006;51.698;-0.292;2022-12-19T08:55:18;6.53;;;1.83;;
22476;SDS011;65006;51.698;-0.292;2022-12-19T08:57:44;9.68;;;2.08;;
22476;SDS011;65006;51.698;-0.292;2022-12-19T09:00:13;6.22;;;1.63;;
22476;SDS011;65006;51.698;-0.292;2022-12-19T09:02:39;8.23;;;1.83;;
22476;SDS011;65006;51.698;-0.292;2022-12-19T09:05:05;7.88;;;2.85;;
22476;SDS011;65006;51.698;-0.292;2022-12-19T09:07:31;9.68;;;2.72;;
22476;SDS011;65006;51.698;-0.292;2022-12-19T09:09:59;11.32;;;2.38;;
22476;SDS011;65006;51.698;-0.292;2022-12-19T09:12:25;7.10;;;1.98;;
22476;SDS011;65006;51.698;-0.292;2022-12-19T09:14:51;7.68;;;1.80;;
22476;SDS011;65006;51.698;-0.292;2022-12-19T09:17:17;8.65;;;1.98;;
22476;SDS011;65006;51.698;-0.292;2022-12-19T09:19:43;12.15;;;2.30;;
22476;SDS011;65006;51.698;-0.292;2022-12-19T09:22:09;12.27;;;1.98;;
22476;SDS011;65006;51.698;-0.292;2022-12-19T09:24:35;7.47;;;2.40;;
22476;SDS011;65006;51.698;-0.292;2022-12-19T09:27:01;6.80;;;2.55;;
22476;SDS011;65006;51.698;-0.292;2022-12-19T09:29:28;12.75;;;2.10;;
22476;SDS011;65006;51.698;-0.292;2022-12-19T09:31:54;7.75;;;2.17;;
22476;SDS011;65006;51.698;-0.292;2022-12-19T09:34:20;8.20;;;2.15;;
22476;SDS011;65006;51.698;-0.292;2022-12-19T09:36:45;5.47;;;1.90;;
22476;SDS011;65006;51.698;-0.292;2022-12-19T09:39:12;7.05;;;1.73;;
22476;SDS011;65006;51.698;-0.292;2022-12-19T09:49:08;9.98;;;2.47;;
22476;SDS011;65006;51.698;-0.292;2022-12-19T09:51:37;7.28;;;1.75;;
22476;SDS011;65006;51.698;-0.292;2022-12-19T09:56:35;10.13;;;1.90;;
22476;SDS011;65006;51.698;-0.292;2022-12-19T09:59:07;10.48;;;2.40;;
22476;SDS011;65006;51.698;-0.292;2022-12-19T10:01:38;8.70;;;1.50;;
22476;SDS011;65006;51.698;-0.292;2022-12-19T10:04:08;7.20;;;1.70;;
22476;SDS011;65006;51.698;-0.292;2022-12-19T10:06:35;6.95;;;1.75;;
22476;SDS011;65006;51.698;-0.292;2022-12-19T10:09:02;6.15;;;1.73;;
22476;SDS011;65006;51.698;-0.292;2022-12-19T10:14:40;8.85;;;1.40;;
22476;SDS011;65006;51.698;-0.292;2022-12-19T10:29:51;5.47;;;1.50;;
22476;SDS011;65006;51.698;-0.292;2022-12-19T10:32:23;3.83;;;1.27;;
22476;SDS011;65006;51.698;-0.292;2022-12-19T10:34:51;6.97;;;1.30;;
22476;SDS011;65006;51.698;-0.292;2022-12-19T10:37:28;6.72;;;1.48;;
22476;SDS011;65006;51.698;-0.292;2022-12-19T10:42:43;3.20;;;1.15;;
22476;SDS011;65006;51.698;-0.292;2022-12-19T10:45:13;4.95;;;1.02;;
22476;SDS011;65006;51.698;-0.292;2022-12-19T10:47:40;4.28;;;1.40;;
22476;SDS011;65006;51.698;-0.292;2022-12-19T10:50:10;6.72;;;1.60;;
22476;SDS011;65006;51.698;-0.292;2022-12-19T10:58:21;8.20;;;1.40;;
22476;SDS011;65006;51.698;-0.292;2022-12-19T11:03:20;9.77;;;1.38;;
22476;SDS011;65006;51.698;-0.292;2022-12-19T11:05:53;5.45;;;1.63;;
22476;SDS011;65006;51.698;-0.292;2022-12-19T11:08:21;4.80;;;1.00;;
22476;SDS011;65006;51.698;-0.292;2022-12-19T11:10:49;7.32;;;1.20;;
22476;SDS011;65006;51.698;-0.292;2022-12-19T11:13:17;9.45;;;1.15;;
22476;SDS011;65006;51.698;-0.292;2022-12-19T11:15:45;5.10;;;0.70;;
22476;SDS011;65006;51.698;-0.292;2022-12-19T11:18:12;2.85;;;0.77;;
22476;SDS011;65006;51.698;-0.292;2022-12-19T11:20:38;5.95;;;1.02;;
22476;SDS011;65006;51.698;-0.292;2022-12-19T11:23:04;1.90;;;0.77;;
22476;SDS011;65006;51.698;-0.292;2022-12-19T11:25:40;4.35;;;1.05;;
22476;SDS011;65006;51.698;-0.292;2022-12-19T11:28:15;9.10;;;1.13;;
22476;SDS011;65006;51.698;-0.292;2022-12-19T11:30:42;2.13;;;1.02;;
22476;SDS011;65006;51.698;-0.292;2022-12-19T11:33:15;2.60;;;0.90;;
22476;SDS011;65006;51.698;-0.292;2022-12-19T11:35:46;6.18;;;0.88;;
22476;SDS011;65006;51.698;-0.292;2022-12-19T11:38:13;2.10;;;1.05;;
22476;SDS011;65006;51.698;-0.292;2022-12-19T11:40:45;3.25;;;1.05;;
22476;SDS011;65006;51.698;-0.292;2022-12-19T11:43:21;2.63;;;0.82;;
22476;SDS011;65006;51.698;-0.292;2022-12-19T11:48:16;5.70;;;0.90;;
22476;SDS011;65006;51.698;-0.292;2022-12-19T11:50:52;2.88;;;1.02;;
22476;SDS011;65006;51.698;-0.292;2022-12-19T11:53:23;1.83;;;0.85;;
22476;SDS011;65006;51.698;-0.292;2022-12-19T11:58:17;3.08;;;0.85;;
22476;SDS011;65006;51.698;-0.292;2022-12-19T12:00:45;4.07;;;1.02;;
22476;SDS011;65006;51.698;-0.292;2022-12-19T12:05:52;7.07;;;1.38;;
22476;SDS011;65006;51.698;-0.292;2022-12-19T12:11:21;5.97;;;1.30;;
22476;SDS011;65006;51.698;-0.292;2022-12-19T12:13:45;5.15;;;1.45;;
22476;SDS011;65006;51.698;-0.292;2022-12-19T12:16:18;8.73;;;1.88;;
22476;SDS011;65006;51.698;-0.292;2022-12-19T12:19:13;12.82;;;1.63;;
22476;SDS011;65006;51.698;-0.292;2022-12-19T12:21:36;6.80;;;2.03;;
22476;SDS011;65006;51.698;-0.292;2022-12-19T12:31:44;14.70;;;2.35;;
22476;SDS011;65006;51.698;-0.292;2022-12-19T12:39:19;6.53;;;1.92;;
22476;SDS011;65006;51.698;-0.292;2022-12-19T12:44:31;19.75;;;3.03;;
22476;SDS011;65006;51.698;-0.292;2022-12-19T12:47:21;8.63;;;2.30;;
22476;SDS011;65006;51.698;-0.292;2022-12-19T12:49:46;7.97;;;2.30;;
22476;SDS011;65006;51.698;-0.292;2022-12-19T12:52:17;10.85;;;2.22;;
22476;SDS011;65006;51.698;-0.292;2022-12-19T12:54:44;7.35;;;1.90;;
22476;SDS011;65006;51.698;-0.292;2022-12-19T12:57:18;7.38;;;1.67;;
22476;SDS011;65006;51.698;-0.292;2022-12-19T12:59:45;17.98;;;1.85;;
22476;SDS011;65006;51.698;-0.292;2022-12-19T13:02:19;15.63;;;2.10;;
22476;SDS011;65006;51.698;-0.292;2022-12-19T13:04:57;12.40;;;2.47;;
22476;SDS011;65006;51.698;-0.292;2022-12-19T13:09:51;7.93;;;2.15;;
22476;SDS011;65006;51.698;-0.292;2022-12-19T13:12:19;9.90;;;2.40;;
22476;SDS011;65006;51.698;-0.292;2022-12-19T13:22:41;25.08;;;1.95;;
22476;SDS011;65006;51.698;-0.292;2022-12-19T13:27:56;19.20;;;1.90;;
22476;SDS011;65006;51.698;-0.292;2022-12-19T13:30:23;8.55;;;1.75;;
22476;SDS011;65006;51.698;-0.292;2022-12-19T13:37:48;14.95;;;1.83;;
22476;SDS011;65006;51.698;-0.292;2022-12-19T13:42:51;11.30;;;1.58;;
22476;SDS011;65006;51.698;-0.292;2022-12-19T13:45:38;13.43;;;2.15;;
22476;SDS011;65006;51.698;-0.292;2022-12-19T13:48:05;9.90;;;2.15;;
22476;SDS011;65006;51.698;-0.292;2022-12-19T13:50:37;5.28;;;1.55;;
22476;SDS011;65006;51.698;-0.292;2022-12-19T13:53:20;9.98;;;2.38;;
22476;SDS011;65006;51.698;-0.292;2022-12-19T13:55:47;12.98;;;1.70;;
22476;SDS011;65006;51.698;-0.292;2022-12-19T13:58:20;6.30;;;1.77;;
22476;SDS011;65006;51.698;-0.292;2022-12-19T14:00:47;7.43;;;1.65;;
22476;SDS011;65006;51.698;-0.292;2022-12-19T14:03:14;6.93;;;1.88;;
22476;SDS011;65006;51.698;-0.292;2022-12-19T14:05:41;14.10;;;1.90;;
22476;SDS011;65006;51.698;-0.292;2022-12-19T14:08:07;17.63;;;2.10;;
22476;SDS011;65006;51.698;-0.292;2022-12-19T14:10:34;3.97;;;1.38;;
22476;SDS011;65006;51.698;-0.292;2022-12-19T14:13:09;7.10;;;1.63;;
22476;SDS011;65006;51.698;-0.292;2022-12-19T14:15:56;5.88;;;1.70;;
22476;SDS011;65006;51.698;-0.292;2022-12-19T14:18:26;8.50;;;2.30;;
22476;SDS011;65006;51.698;-0.292;2022-12-19T14:21:06;8.10;;;2.05;;
22476;SDS011;65006;51.698;-0.292;2022-12-19T14:23:32;8.57;;;2.22;;
22476;SDS011;65006;51.698;-0.292;2022-12-19T14:25:58;17.98;;;2.67;;
22476;SDS011;65006;51.698;-0.292;2022-12-19T14:28:27;12.85;;;2.13;;
22476;SDS011;65006;51.698;-0.292;2022-12-19T14:30:57;7.95;;;1.63;;
22476;SDS011;65006;51.698;-0.292;2022-12-19T14:33:31;16.63;;;2.28;;
22476;SDS011;65006;51.698;-0.292;2022-12-19T14:35:59;10.18;;;1.77;;
22476;SDS011;65006;51.698;-0.292;2022-12-19T14:38:26;8.85;;;1.88;;
22476;SDS011;65006;51.698;-0.292;2022-12-19T14:40:53;10.85;;;2.00;;
22476;SDS011;65006;51.698;-0.292;2022-12-19T14:43:23;7.93;;;1.67;;
22476;SDS011;65006;51.698;-0.292;2022-12-19T14:54:04;6.72;;;1.92;;
22476;SDS011;65006;51.698;-0.292;2022-12-19T14:56:41;5.13;;;1.55;;
22476;SDS011;65006;51.698;-0.292;2022-12-19T15:01:33;3.78;;;1.48;;
22476;SDS011;65006;51.698;-0.292;2022-12-19T15:04:01;12.52;;;2.00;;
22476;SDS011;65006;51.698;-0.292;2022-12-19T15:06:28;5.55;;;1.50;;
22476;SDS011;65006;51.698;-0.292;2022-12-19T15:08:56;8.93;;;1.50;;
22476;SDS011;65006;51.698;-0.292;2022-12-19T15:11:27;4.63;;;1.40;;
22476;SDS011;65006;51.698;-0.292;2022-12-19T15:14:12;4.60;;;1.60;;
22476;SDS011;65006;51.698;-0.292;2022-12-19T15:16:38;9.65;;;1.40;;
22476;SDS011;65006;51.698;-0.292;2022-12-19T15:19:09;5.32;;;1.73;;
22476;SDS011;65006;51.698;-0.292;2022-12-19T15:21:37;11.77;;;2.10;;
22476;SDS011;65006;51.698;-0.292;2022-12-19T15:24:03;9.38;;;2.17;;
22476;SDS011;65006;51.698;-0.292;2022-12-19T15:26:31;12.30;;;2.38;;
22476;SDS011;65006;51.698;-0.292;2022-12-19T15:28:58;8.55;;;1.90;;
22476;SDS011;65006;51.698;-0.292;2022-12-19T15:36:34;8.50;;;2.53;;
22476;SDS011;65006;51.698;-0.292;2022-12-19T15:39:01;12.77;;;2.40;;
22476;SDS011;65006;51.698;-0.292;2022-12-19T15:43:53;9.80;;;1.40;;
22476;SDS011;65006;51.698;-0.292;2022-12-19T15:46:19;8.23;;;1.90;;
22476;SDS011;65006;51.698;-0.292;2022-12-19T15:48:47;7.72;;;1.70;;
22476;SDS011;65006;51.698;-0.292;2022-12-19T15:51:15;12.80;;;1.70;;
22476;SDS011;65006;51.698;-0.292;2022-12-19T15:53:41;7.22;;;2.00;;
22476;SDS011;65006;51.698;-0.292;2022-12-19T15:56:13;6.13;;;2.20;;
22476;SDS011;65006;51.698;-0.292;2022-12-19T15:58:45;8.73;;;2.42;;
22476;SDS011;65006;51.698;-0.292;2022-12-19T16:01:11;7.10;;;1.40;;
22476;SDS011;65006;51.698;-0.292;2022-12-19T16:03:38;12.73;;;1.58;;
22476;SDS011;65006;51.698;-0.292;2022-12-19T16:06:09;7.57;;;1.58;;
22476;SDS011;65006;51.698;-0.292;2022-12-19T16:08:36;6.78;;;2.05;;
22476;SDS011;65006;51.698;-0.292;2022-12-19T16:11:02;7.55;;;1.45;;
22476;SDS011;65006;51.698;-0.292;2022-12-19T16:13:29;7.90;;;1.70;;
22476;SDS011;65006;51.698;-0.292;2022-12-19T16:15:56;6.07;;;1.45;;
22476;SDS011;65006;51.698;-0.292;2022-12-19T16:18:22;6.97;;;1.58;;
22476;SDS011;65006;51.698;-0.292;2022-12-19T16:20:48;7.68;;;1.70;;
22476;SDS011;65006;51.698;-0.292;2022-12-19T16:23:14;7.90;;;1.52;;
22476;SDS011;65006;51.698;-0.292;2022-12-19T16:28:12;6.72;;;1.25;;
22476;SDS011;65006;51.698;-0.292;2022-12-19T16:30:39;6.55;;;1.55;;
22476;SDS011;65006;51.698;-0.292;2022-12-19T16:33:29;7.80;;;2.05;;
22476;SDS011;65006;51.698;-0.292;2022-12-19T16:35:54;7.15;;;1.33;;
22476;SDS011;65006;51.698;-0.292;2022-12-19T16:38:21;4.10;;;1.70;;
22476;SDS011;65006;51.698;-0.292;2022-12-19T16:40:50;5.78;;;1.48;;
22476;SDS011;65006;51.698;-0.292;2022-12-19T16:43:18;5.88;;;1.88;;
22476;SDS011;65006;51.698;-0.292;2022-12-19T16:45:50;6.03;;;1.48;;
22476;SDS011;65006;51.698;-0.292;2022-12-19T16:48:17;11.43;;;1.75;;
22476;SDS011;65006;51.698;-0.292;2022-12-19T16:50:43;11.55;;;1.95;;
22476;SDS011;65006;51.698;-0.292;2022-12-19T16:53:09;8.55;;;1.70;;
22476;SDS011;65006;51.698;-0.292;2022-12-19T16:55:35;10.30;;;1.85;;
22476;SDS011;65006;51.698;-0.292;2022-12-19T16:58:01;12.82;;;2.00;;